Time;durP1;ratioP1;P1;durP2;ratioP2;P2;SDS_P1;SDS_P2;PMS_P1;PMS_P2;Temp;Humidity;BMP_temperature;BMP_pressure;BME280_temperature;BME280_humidity;BME280_pressure;Samples;Min_cycle;Max_cycle;Signal;HPM_P1;HPM_P2
2022/04/05 00:00:57;;;;;;;19.42;9.50;;;;;;;9.37;96.19;100439.13;5047139;28;20481;-87
2022/04/05 00:03:22;;;;;;;21.52;9.95;;;;;;;9.33;96.33;100437.63;5022942;28;20022;-87
2022/04/05 00:05:48;;;;;;;27.23;10.68;;;;;;;9.37;96.73;100441.84;5023095;28;20032;-89
2022/04/05 00:08:16;;;;;;;23.35;9.10;;;;;;;9.36;96.56;100441.94;5032881;28;20038;-87
2022/04/05 00:10:42;;;;;;;23.92;9.73;;;;;;;9.37;95.95;100447.28;5021204;28;20065;-88
2022/04/05 00:13:07;;;;;;;21.70;10.00;;;;;;;9.36;96.14;100439.22;5045292;28;20033;-86
2022/04/05 00:15:34;;;;;;;21.10;8.60;;;;;;;9.36;95.88;100445.53;5045391;28;20048;-86
2022/04/05 00:18:00;;;;;;;18.85;9.00;;;;;;;9.33;96.20;100445.78;5029345;28;20033;-86
2022/04/05 00:20:27;;;;;;;20.15;9.43;;;;;;;9.34;96.11;100444.78;5046320;28;20068;-93
2022/04/05 00:22:54;;;;;;;22.55;9.57;;;;;;;9.37;96.15;100454.53;5025027;28;20013;-86
2022/04/05 00:25:19;;;;;;;19.48;8.95;;;;;;;9.33;96.16;100453.91;5029267;28;20020;-87
2022/04/05 00:27:46;;;;;;;23.90;8.77;;;;;;;9.34;96.38;100461.06;5029908;28;20504;-88
2022/04/05 00:30:12;;;;;;;22.38;8.00;;;;;;;9.30;96.46;100450.56;5028908;28;20089;-86
2022/04/05 00:32:38;;;;;;;21.33;8.73;;;;;;;9.29;96.49;100456.97;5047423;28;20112;-91
2022/04/05 00:35:04;;;;;;;15.95;8.50;;;;;;;9.31;96.57;100458.56;5032294;28;20028;-88
2022/04/05 00:37:29;;;;;;;18.50;8.32;;;;;;;9.29;96.68;100455.13;5041966;28;20051;-87
2022/04/05 00:39:55;;;;;;;17.17;8.32;;;;;;;9.28;97.09;100453.38;5026929;28;20033;-86
2022/04/05 00:42:20;;;;;;;19.08;7.85;;;;;;;9.23;96.24;100452.81;5037588;28;20045;-86
2022/04/05 00:44:46;;;;;;;18.25;8.70;;;;;;;9.22;96.45;100445.66;5020806;28;20116;-91
2022/04/05 00:47:20;;;;;;;14.02;8.32;;;;;;;9.27;96.71;100464.34;5028032;28;20059;-90
2022/04/05 00:49:47;;;;;;;16.60;8.65;;;;;;;9.25;96.71;100453.59;5045849;28;20063;-92
2022/04/05 00:52:14;;;;;;;17.90;8.35;;;;;;;9.19;97.04;100454.91;5043237;28;20123;-85
2022/04/05 00:54:43;;;;;;;19.10;8.32;;;;;;;9.20;96.81;100456.66;5044694;28;20033;-92
2022/04/05 00:57:11;;;;;;;19.08;8.18;;;;;;;9.26;97.11;100465.31;5047367;28;20376;-88
2022/04/05 00:59:41;;;;;;;17.80;7.72;;;;;;;9.24;96.79;100459.16;5045470;28;20571;-91
2022/04/05 01:02:09;;;;;;;14.63;8.38;;;;;;;9.23;96.85;100457.38;5041071;28;20120;-91
2022/04/05 01:04:35;;;;;;;20.70;9.13;;;;;;;9.19;97.06;100454.91;5030497;28;20025;-91
2022/04/05 01:07:04;;;;;;;14.63;8.13;;;;;;;9.19;97.16;100456.78;5045124;28;20041;-87
2022/04/05 01:09:30;;;;;;;25.45;10.32;;;;;;;9.19;96.93;100463.06;5030971;28;20067;-87
2022/04/05 01:11:55;;;;;;;18.63;8.68;;;;;;;9.17;97.25;100453.28;5042802;28;20128;-86
2022/04/05 01:14:20;;;;;;;16.10;8.40;;;;;;;9.17;97.02;100461.44;5024316;28;20114;-87
2022/04/05 01:16:47;;;;;;;15.13;8.05;;;;;;;9.20;97.17;100466.66;5046438;28;20036;-88
2022/04/05 01:19:12;;;;;;;15.85;8.55;;;;;;;9.20;97.17;100463.94;5034239;28;20484;-91
2022/04/05 01:21:37;;;;;;;16.23;8.73;;;;;;;9.15;97.02;100460.69;5032682;28;20036;-87
2022/04/05 01:24:05;;;;;;;18.60;9.77;;;;;;;9.19;97.14;100471.22;5043722;28;20038;-90
2022/04/05 01:26:37;;;;;;;21.38;9.55;;;;;;;9.17;97.14;100467.72;5031113;28;20033;-87
2022/04/05 01:29:03;;;;;;;15.63;9.60;;;;;;;9.09;96.73;100448.44;5047349;28;20047;-91
2022/04/05 01:31:28;;;;;;;28.42;10.00;;;;;;;9.12;96.85;100459.03;5050987;28;20033;-90
2022/04/05 01:33:54;;;;;;;19.70;9.95;;;;;;;9.09;97.33;100462.00;5032931;28;20381;-92
2022/04/05 01:36:23;;;;;;;21.30;9.63;;;;;;;9.17;97.11;100475.00;5044006;28;20037;-93
2022/04/05 01:38:49;;;;;;;19.33;9.35;;;;;;;9.10;96.89;100469.16;5034994;28;20028;-89
2022/04/05 01:41:14;;;;;;;20.17;9.35;;;;;;;9.15;96.98;100476.97;5030046;28;20041;-90
2022/04/05 01:43:40;;;;;;;15.85;9.32;;;;;;;9.11;97.17;100470.88;5032938;28;20029;-94
2022/04/05 01:46:06;;;;;;;20.13;9.27;;;;;;;9.07;97.03;100465.78;5052196;28;20445;-87
2022/04/05 01:48:32;;;;;;;22.48;9.45;;;;;;;9.11;97.11;100468.19;5053301;28;20193;-93
2022/04/05 01:50:57;;;;;;;25.95;10.23;;;;;;;9.13;96.75;100477.06;5051132;28;20392;-95
2022/04/05 01:53:23;;;;;;;19.70;9.35;;;;;;;9.08;97.14;100468.38;5045291;28;20120;-88
2022/04/05 01:55:48;;;;;;;25.85;9.70;;;;;;;9.04;97.03;100472.28;5050410;28;20492;-90
2022/04/05 01:58:13;;;;;;;20.15;9.73;;;;;;;9.07;96.72;100463.06;5033679;28;20082;-88
2022/04/05 02:00:39;;;;;;;23.23;10.88;;;;;;;9.06;97.07;100470.34;5050547;28;20067;-90
2022/04/05 02:03:04;;;;;;;17.30;9.95;;;;;;;9.09;96.91;100472.84;5051420;28;20060;-91
2022/04/05 02:05:29;;;;;;;21.45;10.52;;;;;;;9.05;96.91;100465.91;5035064;28;20017;-90
2022/04/05 02:07:54;;;;;;;21.25;9.52;;;;;;;9.06;96.77;100464.94;5047877;28;20040;-92
2022/04/05 02:10:20;;;;;;;21.63;10.40;;;;;;;9.04;96.88;100461.44;5033693;28;20057;-89
2022/04/05 02:12:45;;;;;;;17.75;9.40;;;;;;;9.05;96.94;100470.47;5049756;28;20060;-88
2022/04/05 02:15:24;;;;;;;18.48;9.18;;;;;;;9.03;97.06;100467.00;5036201;28;20076;-93
2022/04/05 02:17:58;;;;;;;22.20;9.75;;;;;;;9.04;96.92;100468.72;5052135;28;20024;-88
2022/04/05 02:20:26;;;;;;;21.63;9.50;;;;;;;8.99;96.83;100460.91;5052040;28;20040;-86
2022/04/05 02:22:52;;;;;;;16.27;9.00;;;;;;;9.03;96.41;100475.13;5028185;28;20025;-86
2022/04/05 02:25:26;;;;;;;;;;;;;;;9.09;96.19;100478.28;5034322;28;20060;-88
2022/04/05 02:27:52;;;;;;;21.85;8.50;;;;;;;9.05;96.67;100475.91;5052571;28;19939;-89
2022/04/05 02:30:26;;;;;;;19.92;9.70;;;;;;;9.02;96.87;100476.97;5054255;28;20048;-88
2022/04/05 02:32:54;;;;;;;16.67;9.05;;;;;;;9.03;96.97;100476.00;5039368;28;20115;-86
2022/04/05 02:35:21;;;;;;;23.00;9.20;;;;;;;9.01;96.86;100466.25;5031736;28;20401;-91
2022/04/05 02:37:48;;;;;;;17.35;9.80;;;;;;;9.01;96.64;100474.38;5033496;28;20030;-87
2022/04/05 02:40:16;;;;;;;18.98;9.63;;;;;;;9.02;96.61;100473.41;5033724;28;20034;-92
2022/04/05 02:42:42;;;;;;;21.63;9.45;;;;;;;9.00;96.46;100470.81;5019251;28;20033;-91
2022/04/05 02:45:10;;;;;;;21.65;9.70;;;;;;;9.00;96.57;100481.66;5051449;28;20029;-90
2022/04/05 02:47:38;;;;;;;22.83;9.85;;;;;;;9.04;96.92;100482.28;5033780;28;20025;-95
2022/04/05 02:50:05;;;;;;;17.60;8.80;;;;;;;8.93;96.74;100464.94;5045421;28;20029;-92
2022/04/05 02:52:32;;;;;;;17.77;9.05;;;;;;;8.97;96.39;100471.00;5042586;28;20068;-90
2022/04/05 02:55:03;;;;;;;17.38;8.52;;;;;;;9.00;96.68;100478.06;5035154;28;20041;-93
2022/04/05 02:57:35;;;;;;;15.85;8.10;;;;;;;9.02;96.83;100478.81;5031363;28;20128;-90
2022/04/05 03:00:03;;;;;;;15.48;8.82;;;;;;;8.98;96.70;100470.03;5047986;28;20032;-92
2022/04/05 03:02:33;;;;;;;17.27;7.88;;;;;;;8.92;96.76;100454.22;5032539;28;20051;-91
2022/04/05 03:04:58;;;;;;;16.10;8.18;;;;;;;8.81;96.54;100440.53;5049884;28;20025;-94
2022/04/05 03:07:25;;;;;;;16.80;8.55;;;;;;;8.93;96.68;100459.50;5049551;28;20033;-93
2022/04/05 03:09:51;;;;;;;20.02;8.45;;;;;;;8.92;96.80;100460.50;5051613;28;20132;-90
2022/04/05 03:12:18;;;;;;;21.60;10.50;;;;;;;8.96;96.50;100465.72;5023438;28;20025;-89
2022/04/05 03:14:45;;;;;;;17.73;8.52;;;;;;;8.81;96.49;100436.00;5040437;28;20029;-95
2022/04/05 03:17:13;;;;;;;12.63;8.48;;;;;;;9.00;96.70;100473.53;5038721;28;20074;-88
2022/04/05 03:19:40;;;;;;;17.08;8.10;;;;;;;8.87;96.67;100454.53;5049372;28;20044;-93
2022/04/05 03:22:09;;;;;;;20.77;9.15;;;;;;;8.85;96.47;100453.75;5032941;28;20063;-91
2022/04/05 03:24:35;;;;;;;19.60;8.35;;;;;;;8.82;96.80;100445.88;5033647;28;20052;-91
2022/04/05 03:27:02;;;;;;;16.40;8.88;;;;;;;8.92;97.01;100473.19;5044138;28;20470;-88
2022/04/05 03:29:27;;;;;;;21.35;8.35;;;;;;;8.95;96.34;100472.97;5047753;28;20025;-87
2022/04/05 03:31:53;;;;;;;16.67;8.15;;;;;;;8.92;96.94;100471.34;5053691;28;20035;-91
2022/04/05 03:34:19;;;;;;;14.38;9.00;;;;;;;8.75;96.92;100439.13;5028041;28;20029;-94
2022/04/05 03:36:46;;;;;;;17.00;8.45;;;;;;;8.80;97.15;100442.38;5049123;28;20056;-88
2022/04/05 03:39:13;;;;;;;18.98;8.93;;;;;;;8.96;96.83;100468.44;5047035;28;20052;-91
2022/04/05 03:41:42;;;;;;;15.75;8.07;;;;;;;8.89;96.89;100454.41;5055114;28;20024;-90
2022/04/05 03:44:12;;;;;;;13.20;7.25;;;;;;;8.97;97.01;100470.16;5043511;28;20483;-94
2022/04/05 03:46:42;;;;;;;19.70;8.70;;;;;;;8.76;96.68;100430.00;5023024;28;20064;-91
2022/04/05 03:49:08;;;;;;;16.88;8.80;;;;;;;8.88;96.83;100449.97;5017054;28;20135;-89
2022/04/05 03:51:34;;;;;;;17.33;8.57;;;;;;;8.85;96.62;100445.63;5031727;28;20053;-90
2022/04/05 03:54:02;;;;;;;11.68;7.72;;;;;;;8.91;96.63;100460.63;5028610;28;20099;-88
2022/04/05 03:56:32;;;;;;;15.70;7.45;;;;;;;8.93;96.69;100464.94;5053238;28;20050;-90
2022/04/05 03:59:01;;;;;;;17.67;8.80;;;;;;;8.91;96.37;100458.78;5030422;28;20037;-87
2022/04/05 04:01:26;;;;;;;17.25;8.27;;;;;;;8.96;97.04;100465.72;5050044;28;20036;-88
2022/04/05 04:03:52;;;;;;;17.67;8.30;;;;;;;8.85;96.95;100448.34;5034416;28;20021;-92
2022/04/05 04:06:18;;;;;;;14.75;8.15;;;;;;;8.75;96.74;100430.13;5036286;28;20087;-88
2022/04/05 04:08:45;;;;;;;15.23;7.38;;;;;;;8.90;96.46;100451.59;5030348;28;20033;-92
2022/04/05 04:11:11;;;;;;;12.45;7.30;;;;;;;8.88;96.37;100449.97;5044541;28;20407;-92
2022/04/05 04:13:37;;;;;;;13.25;7.47;;;;;;;8.90;96.72;100453.44;5035118;28;20040;-91
2022/04/05 04:16:04;;;;;;;12.50;7.40;;;;;;;8.91;96.53;100464.19;5030674;28;20055;-92
2022/04/05 04:18:32;;;;;;;18.08;8.10;;;;;;;8.93;96.60;100461.38;5029632;28;20048;-91
2022/04/05 04:20:58;;;;;;;14.32;7.68;;;;;;;8.93;96.50;100461.38;5032096;28;20083;-94
2022/04/05 04:23:25;;;;;;;19.02;8.60;;;;;;;8.91;96.89;100452.47;5042146;28;20063;-91
2022/04/05 04:25:53;;;;;;;15.43;7.85;;;;;;;8.94;96.75;100455.81;5052686;28;20070;-94
2022/04/05 04:28:20;;;;;;;14.80;8.02;;;;;;;8.89;96.63;100458.00;5033220;28;20045;-90
2022/04/05 04:30:46;;;;;;;14.48;8.10;;;;;;;8.95;96.97;100464.81;5036439;28;20036;-93
2022/04/05 04:33:13;;;;;;;13.65;7.68;;;;;;;8.85;96.72;100448.34;5050389;28;20030;-91
2022/04/05 04:35:40;;;;;;;14.10;8.55;;;;;;;8.95;96.44;100467.53;5025254;28;20025;-93
2022/04/05 04:38:07;;;;;;;12.70;7.70;;;;;;;8.96;96.70;100461.16;5049082;28;20036;-91
2022/04/05 04:40:36;;;;;;;14.82;8.02;;;;;;;8.85;96.73;100447.47;5054190;28;20051;-92
2022/04/05 04:43:04;;;;;;;12.75;7.03;;;;;;;8.90;96.52;100457.00;5037949;28;20029;-95
2022/04/05 04:45:34;;;;;;;14.68;7.78;;;;;;;8.74;96.59;100425.69;5031517;28;20033;-94
2022/04/05 04:47:59;;;;;;;16.77;7.70;;;;;;;8.82;96.68;100439.56;5048845;28;20127;-90
2022/04/05 04:50:26;;;;;;;15.23;7.35;;;;;;;8.91;97.08;100460.63;5048734;28;20402;-91
2022/04/05 04:52:52;;;;;;;15.13;7.53;;;;;;;8.83;96.75;100446.72;5031036;28;20059;-91
2022/04/05 04:55:17;;;;;;;14.73;8.02;;;;;;;8.76;96.62;100440.84;5047108;28;20477;-92
2022/04/05 04:57:42;;;;;;;14.48;7.88;;;;;;;8.93;96.79;100470.38;5031576;28;20463;-91
2022/04/05 05:00:12;;;;;;;15.70;7.40;;;;;;;8.85;96.79;100461.91;5048184;28;20026;-95
2022/04/05 05:02:48;;;;;;;15.57;8.43;;;;;;;8.82;97.22;100447.72;5028336;28;20041;-92
2022/04/05 05:05:22;;;;;;;15.93;8.68;;;;;;;8.89;97.18;100466.13;5029568;28;20373;-92
2022/04/05 05:07:51;;;;;;;18.40;8.35;;;;;;;8.87;97.01;100465.38;5050052;28;20041;-94
2022/04/05 05:10:18;;;;;;;18.17;7.97;;;;;;;8.96;97.26;100471.13;5039116;28;20048;-91
2022/04/05 05:12:43;;;;;;;17.25;8.25;;;;;;;8.86;96.88;100458.22;5035446;28;20037;-94
2022/04/05 05:15:18;;;;;;;16.25;8.23;;;;;;;8.88;96.84;100469.81;5040209;28;20029;-95
2022/04/05 05:17:45;;;;;;;15.75;7.47;;;;;;;8.79;97.22;100456.06;5037106;28;20058;-91
2022/04/05 05:20:14;;;;;;;15.88;7.55;;;;;;;8.71;97.05;100439.44;5057561;28;20064;-94
2022/04/05 05:22:42;;;;;;;14.82;9.18;;;;;;;8.70;97.19;100438.59;5045205;28;20128;-88
2022/04/05 05:25:09;;;;;;;13.93;7.72;;;;;;;8.94;96.89;100482.94;5049885;28;20037;-88
2022/04/05 05:27:34;;;;;;;19.20;8.25;;;;;;;8.87;96.98;100475.38;5029806;28;20044;-87
2022/04/05 05:30:00;;;;;;;15.00;8.05;;;;;;;8.92;97.17;100478.63;5030400;28;20025;-93
2022/04/05 05:32:26;;;;;;;12.88;7.15;;;;;;;8.84;97.06;100464.72;5025245;28;20143;-93
2022/04/05 05:34:51;;;;;;;12.75;7.00;;;;;;;8.90;96.41;100470.56;5048723;28;20044;-91
2022/04/05 05:37:19;;;;;;;14.63;7.22;;;;;;;8.95;96.84;100478.38;5031168;28;20036;-93
2022/04/05 05:39:45;;;;;;;11.75;7.30;;;;;;;8.97;97.14;100478.28;5035106;28;20040;-88
2022/04/05 05:42:10;;;;;;;14.23;7.32;;;;;;;8.90;96.80;100481.41;5035773;28;20500;-91
2022/04/05 05:44:36;;;;;;;17.20;7.88;;;;;;;8.97;97.16;100486.44;5053888;28;20029;-88
2022/04/05 05:47:04;;;;;;;13.18;7.45;;;;;;;9.01;97.20;100490.66;5034553;28;20059;-91
2022/04/05 05:49:29;;;;;;;12.63;8.00;;;;;;;8.94;96.85;100484.78;5034270;28;20091;-91
2022/04/05 05:51:55;;;;;;;14.10;7.65;;;;;;;8.95;96.99;100483.81;5051812;28;20029;-94
2022/04/05 05:54:20;;;;;;;16.25;8.52;;;;;;;8.91;97.08;100487.75;5047082;28;20036;-90
2022/04/05 05:56:47;;;;;;;13.02;7.65;;;;;;;9.01;96.92;100504.22;5044995;28;20029;-94
2022/04/05 05:59:12;;;;;;;18.67;9.43;;;;;;;8.98;97.23;100497.16;5029021;28;20049;-89
2022/04/05 06:01:38;;;;;;;14.82;9.00;;;;;;;8.97;97.15;100497.28;5043169;28;20135;-93
2022/04/05 06:04:04;;;;;;;17.10;8.52;;;;;;;9.01;97.11;100507.81;5047379;28;20140;-89
2022/04/05 06:06:30;;;;;;;16.45;8.20;;;;;;;8.97;97.22;100500.00;5035588;28;20128;-88
2022/04/05 06:08:56;;;;;;;17.63;8.35;;;;;;;8.87;96.93;100480.78;5043884;28;20150;-90
2022/04/05 06:11:22;;;;;;;16.20;8.77;;;;;;;8.96;97.03;100501.84;5045792;28;20041;-90
2022/04/05 06:13:48;;;;;;;15.25;7.68;;;;;;;8.84;96.58;100479.16;5036131;28;20495;-92
2022/04/05 06:16:15;;;;;;;17.42;9.65;;;;;;;8.85;96.70;100480.88;5013158;28;20099;-87
2022/04/05 06:18:42;;;;;;;18.08;9.10;;;;;;;8.89;96.40;100487.84;5050868;28;20029;-90
2022/04/05 06:21:08;;;;;;;20.30;9.15;;;;;;;9.03;96.84;100513.97;5054499;28;20037;-89
2022/04/05 06:23:33;;;;;;;18.25;9.38;;;;;;;9.04;96.81;100506.69;5021138;28;20033;-87
2022/04/05 06:25:59;;;;;;;14.88;8.00;;;;;;;9.05;96.55;100512.03;5034432;28;20055;-88
2022/04/05 06:28:24;;;;;;;14.82;9.15;;;;;;;9.05;96.29;100516.59;5048822;28;20876;-95
2022/04/05 06:30:50;;;;;;;17.70;8.27;;;;;;;9.04;96.45;100515.72;5035483;28;20432;-88
2022/04/05 06:33:20;;;;;;;14.68;8.68;;;;;;;9.01;96.35;100525.94;5031628;28;20021;-90
2022/04/05 06:35:51;;;;;;;19.63;8.75;;;;;;;9.08;96.78;100524.50;5049800;28;20056;-89
2022/04/05 06:38:17;;;;;;;17.95;7.85;;;;;;;9.04;96.31;100518.44;5048970;28;20036;-93
2022/04/05 06:40:43;;;;;;;15.50;7.90;;;;;;;9.13;96.48;100528.63;5052392;28;20240;-92
2022/04/05 06:43:14;;;;;;;15.43;7.97;;;;;;;9.07;96.39;100514.63;5030101;28;20029;-92
2022/04/05 06:45:40;;;;;;;13.65;7.15;;;;;;;9.19;95.97;100532.78;5050125;28;20048;-87
2022/04/05 06:48:06;;;;;;;17.38;8.02;;;;;;;9.16;95.97;100524.84;5046257;28;20044;-91
2022/04/05 06:50:32;;;;;;;17.50;7.68;;;;;;;9.18;95.96;100525.56;5048690;28;20060;-89
2022/04/05 06:52:59;;;;;;;13.15;8.00;;;;;;;9.23;95.63;100530.69;5043805;28;20119;-91
2022/04/05 06:55:25;;;;;;;13.73;6.95;;;;;;;9.15;95.58;100518.53;5054046;28;20037;-93
2022/04/05 06:57:53;;;;;;;17.00;7.70;;;;;;;9.17;95.92;100516.56;5033575;28;20442;-96
2022/04/05 07:00:23;;;;;;;11.80;6.70;;;;;;;9.23;95.65;100526.13;5048341;28;20124;-93
2022/04/05 07:02:49;;;;;;;13.52;7.35;;;;;;;9.16;95.57;100514.84;5052276;28;20104;-89
2022/04/05 07:05:16;;;;;;;15.18;7.15;;;;;;;9.21;95.23;100533.50;5031541;28;20025;-90
2022/04/05 07:07:41;;;;;;;14.73;6.18;;;;;;;9.18;95.54;100523.72;5045752;28;20056;-93
2022/04/05 07:10:10;;;;;;;15.20;7.05;;;;;;;9.26;95.62;100549.47;5030585;28;20046;-92
2022/04/05 07:12:36;;;;;;;14.25;7.80;;;;;;;9.09;95.46;100515.38;5032063;28;20056;-88
2022/04/05 07:15:02;;;;;;;17.02;7.47;;;;;;;9.25;95.45;100545.88;5029162;28;20080;-91
2022/04/05 07:17:28;;;;;;;12.25;6.63;;;;;;;9.29;95.76;100550.13;5051704;28;20052;-91
2022/04/05 07:19:55;;;;;;;13.55;6.72;;;;;;;9.26;95.79;100542.19;5056890;28;20021;-96
2022/04/05 07:22:21;;;;;;;12.15;6.55;;;;;;;9.11;95.44;100527.00;5049581;28;20091;-91
2022/04/05 07:24:47;;;;;;;13.25;6.93;;;;;;;9.26;95.66;100544.03;5036132;28;20028;-88
2022/04/05 07:27:13;;;;;;;11.73;6.95;;;;;;;9.16;95.49;100522.97;5034147;28;20537;-90
2022/04/05 07:29:39;;;;;;;13.75;7.10;;;;;;;9.30;95.59;100549.13;5027419;28;20029;-86
2022/04/05 07:32:05;;;;;;;14.57;6.88;;;;;;;9.04;95.61;100501.28;5065408;28;20045;-94
2022/04/05 07:34:30;;;;;;;15.93;6.57;;;;;;;9.17;95.42;100518.41;5029997;28;20040;-89
2022/04/05 07:36:56;;;;;;;10.73;5.95;;;;;;;9.22;95.31;100532.53;5050928;28;20029;-93
2022/04/05 07:39:23;;;;;;;13.85;6.60;;;;;;;9.24;95.43;100527.88;5052372;28;20136;-87
2022/04/05 07:41:49;;;;;;;12.73;6.07;;;;;;;9.30;94.90;100540.13;5046738;28;20454;-92
2022/04/05 07:44:14;;;;;;;17.38;5.85;;;;;;;9.31;94.93;100536.44;5026783;28;20033;-90
2022/04/05 07:46:40;;;;;;;11.50;6.00;;;;;;;9.14;95.12;100505.09;5045533;28;20397;-89
2022/04/05 07:49:05;;;;;;;14.63;6.95;;;;;;;9.25;95.21;100518.75;5029809;28;20554;-92
2022/04/05 07:51:31;;;;;;;20.00;6.70;;;;;;;9.37;94.90;100535.97;5051412;28;20037;-93
2022/04/05 07:53:56;;;;;;;11.45;6.15;;;;;;;9.36;94.91;100539.69;5047622;28;20064;-91
2022/04/05 07:56:22;;;;;;;9.85;6.00;;;;;;;9.32;94.94;100541.75;5046142;28;20036;-87
2022/04/05 07:58:47;;;;;;;10.27;6.35;;;;;;;9.32;94.89;100541.75;5047953;28;20492;-89
2022/04/05 08:01:13;;;;;;;11.95;5.50;;;;;;;9.38;94.80;100544.03;5038599;28;20041;-90
2022/04/05 08:03:39;;;;;;;13.07;6.18;;;;;;;9.43;94.51;100543.69;5033281;28;20039;-87
2022/04/05 08:06:05;;;;;;;10.38;5.75;;;;;;;9.53;94.44;100552.91;5049800;28;20090;-88
2022/04/05 08:08:31;;;;;;;9.10;5.20;;;;;;;9.57;94.04;100557.13;5048147;28;20028;-88
2022/04/05 08:10:57;;;;;;;10.63;5.85;;;;;;;9.54;93.95;100541.06;5050176;28;20499;-89
2022/04/05 08:13:23;;;;;;;15.98;5.50;;;;;;;9.58;93.81;100553.44;5049234;28;20091;-95
2022/04/05 08:15:49;;;;;;;9.70;5.15;;;;;;;9.56;93.78;100541.84;5047434;28;20033;-90
2022/04/05 08:18:14;;;;;;;13.10;5.63;;;;;;;9.58;93.53;100548.00;5046907;28;20151;-89
2022/04/05 08:20:41;;;;;;;10.18;6.90;;;;;;;9.57;93.35;100545.41;5048409;28;20037;-88
2022/04/05 08:23:08;;;;;;;13.00;5.55;;;;;;;9.56;93.72;100547.25;5037261;28;20048;-90
2022/04/05 08:25:34;;;;;;;10.63;5.22;;;;;;;9.58;93.17;100550.72;5048272;28;20119;-92
2022/04/05 08:28:00;;;;;;;11.57;5.82;;;;;;;9.49;93.68;100536.94;5049701;28;20017;-88
2022/04/05 08:30:25;;;;;;;11.48;4.95;;;;;;;9.62;93.60;100557.66;5046932;28;20374;-87
2022/04/05 08:32:51;;;;;;;9.88;5.00;;;;;;;9.67;93.78;100563.63;5048663;28;20033;-89
2022/04/05 08:35:19;;;;;;;9.55;5.18;;;;;;;9.74;93.49;100564.03;5048880;28;20136;-94
2022/04/05 08:37:45;;;;;;;10.70;5.88;;;;;;;9.78;93.19;100557.41;5046878;28;20028;-89
2022/04/05 08:40:13;;;;;;;12.45;5.18;;;;;;;9.80;93.47;100549.16;5036934;28;20440;-89
2022/04/05 08:42:41;;;;;;;12.30;5.22;;;;;;;9.96;93.50;100566.91;5030508;28;20034;-90
2022/04/05 08:45:10;;;;;;;9.88;5.90;;;;;;;10.04;92.93;100568.19;5047730;28;20036;-88
2022/04/05 08:47:39;;;;;;;13.05;5.20;;;;;;;10.02;92.51;100556.56;5048124;28;20032;-88
2022/04/05 08:50:05;;;;;;;10.98;4.90;;;;;;;10.07;92.05;100563.41;5031422;28;20144;-88
2022/04/05 08:52:31;;;;;;;8.23;4.82;;;;;;;10.12;91.94;100566.63;5027109;28;20037;-87
2022/04/05 08:54:56;;;;;;;11.25;5.05;;;;;;;10.10;92.03;100557.72;5030873;28;20036;-88
2022/04/05 08:57:22;;;;;;;8.63;4.75;;;;;;;10.14;92.21;100567.38;5048978;28;20037;-88
2022/04/05 08:59:48;;;;;;;8.95;4.93;;;;;;;10.15;91.78;100560.09;5029376;28;20038;-88
2022/04/05 09:02:14;;;;;;;8.45;5.10;;;;;;;10.18;91.98;100566.16;5027083;28;20116;-89
2022/04/05 09:04:40;;;;;;;7.63;4.65;;;;;;;10.26;92.17;100567.47;5039195;28;20033;-88
2022/04/05 09:07:40;;;;;;;8.30;4.68;;;;;;;10.32;91.93;100567.88;5048638;28;20048;-86
2022/04/05 09:10:09;;;;;;;9.18;5.28;;;;;;;10.43;91.15;100577.94;5006761;28;20049;-87
2022/04/05 09:12:52;;;;;;;7.32;4.85;;;;;;;10.40;91.45;100576.34;5029865;28;20086;-92
2022/04/05 09:15:21;;;;;;;9.00;4.72;;;;;;;10.46;91.67;100580.44;5043654;28;20103;-89
2022/04/05 09:17:48;;;;;;;9.30;4.95;;;;;;;10.45;91.13;100586.84;5047256;28;20586;-89
2022/04/05 09:20:16;;;;;;;8.68;4.70;;;;;;;10.46;91.17;100578.56;5030524;28;20098;-88
2022/04/05 09:22:42;;;;;;;8.18;5.00;;;;;;;10.42;91.42;100568.03;5046045;28;20336;-91
2022/04/05 09:25:16;;;;;;;7.03;4.18;;;;;;;10.38;91.40;100561.09;5048980;28;20033;-88
2022/04/05 09:27:47;;;;;;;8.05;4.63;;;;;;;10.50;91.38;100581.06;5027134;28;20041;-90
2022/04/05 09:30:17;;;;;;;9.77;5.13;;;;;;;10.52;91.57;100579.94;5023043;28;20472;-89
2022/04/05 09:32:47;;;;;;;10.50;5.25;;;;;;;10.59;91.24;100589.38;5048457;28;20131;-89
2022/04/05 09:35:15;;;;;;;8.75;5.80;;;;;;;10.67;91.29;100602.38;5047974;28;20037;-92
2022/04/05 09:37:41;;;;;;;8.32;5.00;;;;;;;10.69;91.06;100595.00;5029583;28;20017;-89
2022/04/05 09:40:18;;;;;;;8.60;4.47;;;;;;;10.70;90.98;100596.72;5033516;28;20037;-94
2022/04/05 09:43:05;;;;;;;8.00;4.72;;;;;;;10.72;91.39;100594.72;5042789;28;20500;-87
2022/04/05 09:45:49;;;;;;;7.47;4.97;;;;;;;10.72;91.18;100601.06;5021964;28;20649;-91
2022/04/05 09:48:18;;;;;;;11.02;5.03;;;;;;;10.75;91.20;100601.81;5048197;28;20392;-90
2022/04/05 09:51:02;;;;;;;9.60;4.70;;;;;;;10.80;91.70;100596.88;5030720;28;20116;-89
2022/04/05 09:53:54;;;;;;;9.52;4.95;;;;;;;10.82;91.36;100606.66;5022064;28;20033;-90
2022/04/05 09:56:25;;;;;;;7.75;4.93;;;;;;;10.86;91.10;100597.25;5030145;28;21781;-92
2022/04/05 09:58:53;;;;;;;7.10;5.22;;;;;;;10.81;91.54;100576.84;5050016;28;20037;-89
2022/04/05 10:01:21;;;;;;;10.07;4.97;;;;;;;10.80;91.39;100586.84;5045521;28;20028;-89
2022/04/05 10:04:08;;;;;;;7.50;4.72;;;;;;;10.86;91.48;100588.22;5050044;28;20075;-89
2022/04/05 10:06:38;;;;;;;9.32;6.28;;;;;;;10.88;91.57;100592.56;5032653;28;20087;-88
2022/04/05 10:09:04;;;;;;;8.18;3.85;;;;;;;10.93;91.50;100593.06;5047305;28;20033;-89
2022/04/05 10:11:35;;;;;;;6.65;4.85;;;;;;;10.95;91.64;100599.25;5046419;28;20558;-87
2022/04/05 10:14:01;;;;;;;7.07;4.63;;;;;;;11.08;91.41;100601.91;5045406;28;20029;-91
2022/04/05 10:16:29;;;;;;;10.90;4.50;;;;;;;11.20;92.27;100603.66;5037578;28;20396;-90
2022/04/05 10:18:58;;;;;;;8.98;4.63;;;;;;;11.31;91.65;100602.81;5035139;28;20033;-88
2022/04/05 10:21:27;;;;;;;8.98;4.57;;;;;;;11.31;90.30;100591.91;5056895;28;20048;-88
2022/04/05 10:23:55;;;;;;;8.07;4.15;;;;;;;11.34;89.66;100599.84;5049323;28;20445;-90
2022/04/05 10:26:32;;;;;;;7.85;4.50;;;;;;;11.34;89.30;100601.72;5049490;28;20041;-93
2022/04/05 10:28:59;;;;;;;6.20;4.43;;;;;;;11.33;89.55;100592.66;5048967;28;20036;-88
2022/04/05 10:31:32;;;;;;;8.95;4.30;;;;;;;11.40;88.93;100604.78;5049339;28;20387;-90
2022/04/05 10:34:22;;;;;;;8.05;4.97;;;;;;;11.38;89.24;100598.63;5032179;28;20043;-90
2022/04/05 10:37:09;;;;;;;8.18;4.55;;;;;;;11.43;88.95;100601.84;5031601;28;20116;-90
2022/04/05 10:39:35;;;;;;;10.75;4.30;;;;;;;11.41;87.71;100592.91;5048419;28;20028;-86
2022/04/05 10:42:12;;;;;;;6.80;4.20;;;;;;;11.41;88.52;100595.63;5049811;28;20123;-91
2022/04/05 10:44:40;;;;;;;6.75;4.10;;;;;;;11.36;88.40;100586.09;5033658;28;20480;-90
2022/04/05 10:47:07;;;;;;;6.10;3.70;;;;;;;11.31;87.97;100594.63;5050108;28;20658;-93
2022/04/05 10:49:45;;;;;;;7.00;4.10;;;;;;;11.44;88.15;100594.53;5032867;28;20075;-93
2022/04/05 10:52:17;;;;;;;5.38;3.75;;;;;;;11.49;87.83;100600.47;5033096;28;20101;-88
2022/04/05 10:55:05;;;;;;;4.38;3.17;;;;;;;11.57;88.25;100589.84;5048172;28;20051;-88
2022/04/05 10:57:34;;;;;;;8.35;3.72;;;;;;;11.50;86.95;100580.41;5032726;28;20067;-88
2022/04/05 11:00:10;;;;;;;8.27;3.65;;;;;;;11.68;87.71;100594.41;5043192;28;20061;-88
2022/04/05 11:03:06;;;;;;;7.63;4.60;;;;;;;11.67;87.31;100579.06;5031699;28;20044;-89
2022/04/05 11:05:37;;;;;;;8.52;4.00;;;;;;;11.65;86.57;100583.75;5016852;28;20048;-88
2022/04/05 11:08:12;;;;;;;6.45;3.88;;;;;;;11.69;86.92;100582.50;5044421;28;20056;-88
2022/04/05 11:10:39;;;;;;;6.00;3.63;;;;;;;11.84;86.85;100589.47;5063926;28;20053;-88
2022/04/05 11:13:07;;;;;;;5.20;3.45;;;;;;;11.93;86.35;100587.84;5047892;28;20083;-87
2022/04/05 11:15:45;;;;;;;6.93;4.05;;;;;;;12.10;86.12;100591.91;5047220;28;20310;-90
2022/04/05 11:18:11;;;;;;;5.25;3.30;;;;;;;12.09;84.98;100591.03;5050062;28;20032;-93
2022/04/05 11:20:44;;;;;;;4.93;3.75;;;;;;;12.05;85.60;100589.56;5047484;28;20043;-88
2022/04/05 11:23:12;;;;;;;6.97;3.53;;;;;;;12.00;84.93;100586.34;5045253;28;20440;-87
2022/04/05 11:25:37;;;;;;;7.57;3.88;;;;;;;11.99;85.32;100587.34;5049407;28;20433;-87
2022/04/05 11:28:21;;;;;;;5.50;3.53;;;;;;;12.05;85.97;100595.00;5048024;28;20108;-93